sensor_id;sensor_type;location;lat;lon;timestamp;P1;durP1;ratioP1;P2;durP2;ratioP2
26163;SDS011;13914;48.178;11.716;2022-08-21T00:01:09;4.38;;;1.20;;
26163;SDS011;13914;48.178;11.716;2022-08-21T00:03:42;2.58;;;1.30;;
26163;SDS011;13914;48.178;11.716;2022-08-21T00:06:08;1.48;;;1.10;;
26163;SDS011;13914;48.178;11.716;2022-08-21T00:08:34;1.77;;;0.98;;
26163;SDS011;13914;48.178;11.716;2022-08-21T00:11:00;2.42;;;1.20;;
26163;SDS011;13914;48.178;11.716;2022-08-21T00:13:27;2.08;;;1.02;;
26163;SDS011;13914;48.178;11.716;2022-08-21T00:15:52;1.58;;;0.95;;
26163;SDS011;13914;48.178;11.716;2022-08-21T00:23:11;2.55;;;1.30;;
26163;SDS011;13914;48.178;11.716;2022-08-21T00:28:04;5.18;;;1.23;;
26163;SDS011;13914;48.178;11.716;2022-08-21T00:30:32;2.08;;;1.00;;
26163;SDS011;13914;48.178;11.716;2022-08-21T00:32:59;5.72;;;0.90;;
26163;SDS011;13914;48.178;11.716;2022-08-21T00:35:30;2.88;;;0.93;;
26163;SDS011;13914;48.178;11.716;2022-08-21T00:37:59;2.28;;;1.33;;
26163;SDS011;13914;48.178;11.716;2022-08-21T00:40:30;4.82;;;1.13;;
26163;SDS011;13914;48.178;11.716;2022-08-21T00:43:05;1.85;;;0.80;;
26163;SDS011;13914;48.178;11.716;2022-08-21T00:45:34;1.42;;;0.95;;
26163;SDS011;13914;48.178;11.716;2022-08-21T00:48:00;1.52;;;0.88;;
26163;SDS011;13914;48.178;11.716;2022-08-21T00:50:28;4.13;;;0.75;;
26163;SDS011;13914;48.178;11.716;2022-08-21T00:52:57;6.10;;;0.93;;
26163;SDS011;13914;48.178;11.716;2022-08-21T00:55:24;5.22;;;0.88;;
26163;SDS011;13914;48.178;11.716;2022-08-21T00:57:52;2.58;;;1.58;;
26163;SDS011;13914;48.178;11.716;2022-08-21T01:00:25;3.05;;;0.93;;
26163;SDS011;13914;48.178;11.716;2022-08-21T01:02:56;2.88;;;0.80;;
26163;SDS011;13914;48.178;11.716;2022-08-21T01:05:25;3.13;;;1.15;;
26163;SDS011;13914;48.178;11.716;2022-08-21T01:07:52;4.50;;;0.93;;
26163;SDS011;13914;48.178;11.716;2022-08-21T01:10:21;3.78;;;0.75;;
26163;SDS011;13914;48.178;11.716;2022-08-21T01:12:48;2.22;;;0.90;;
26163;SDS011;13914;48.178;11.716;2022-08-21T01:15:16;2.40;;;0.73;;
26163;SDS011;13914;48.178;11.716;2022-08-21T01:17:43;2.55;;;0.57;;
26163;SDS011;13914;48.178;11.716;2022-08-21T01:20:10;1.33;;;0.80;;
26163;SDS011;13914;48.178;11.716;2022-08-21T01:22:36;3.05;;;1.08;;
26163;SDS011;13914;48.178;11.716;2022-08-21T01:25:04;1.70;;;0.80;;
26163;SDS011;13914;48.178;11.716;2022-08-21T01:27:32;1.13;;;0.82;;
26163;SDS011;13914;48.178;11.716;2022-08-21T01:29:59;2.28;;;0.88;;
26163;SDS011;13914;48.178;11.716;2022-08-21T01:32:34;1.42;;;0.95;;
26163;SDS011;13914;48.178;11.716;2022-08-21T01:35:00;1.50;;;0.93;;
26163;SDS011;13914;48.178;11.716;2022-08-21T01:37:27;1.40;;;1.00;;
26163;SDS011;13914;48.178;11.716;2022-08-21T01:39:53;1.17;;;0.80;;
26163;SDS011;13914;48.178;11.716;2022-08-21T01:42:19;1.70;;;1.17;;
26163;SDS011;13914;48.178;11.716;2022-08-21T01:44:45;1.60;;;0.98;;
26163;SDS011;13914;48.178;11.716;2022-08-21T01:47:12;2.58;;;1.08;;
26163;SDS011;13914;48.178;11.716;2022-08-21T01:49:39;1.75;;;0.80;;
26163;SDS011;13914;48.178;11.716;2022-08-21T01:52:07;1.70;;;0.70;;
26163;SDS011;13914;48.178;11.716;2022-08-21T01:54:34;1.58;;;0.70;;
26163;SDS011;13914;48.178;11.716;2022-08-21T01:57:00;2.75;;;0.60;;
26163;SDS011;13914;48.178;11.716;2022-08-21T02:01:52;2.92;;;0.90;;
26163;SDS011;13914;48.178;11.716;2022-08-21T02:04:19;2.55;;;0.73;;
26163;SDS011;13914;48.178;11.716;2022-08-21T02:09:12;3.60;;;0.80;;
26163;SDS011;13914;48.178;11.716;2022-08-21T02:11:39;2.20;;;0.85;;
26163;SDS011;13914;48.178;11.716;2022-08-21T02:14:09;4.45;;;1.17;;
26163;SDS011;13914;48.178;11.716;2022-08-21T02:16:38;2.55;;;0.73;;
26163;SDS011;13914;48.178;11.716;2022-08-21T02:19:05;4.53;;;0.80;;
26163;SDS011;13914;48.178;11.716;2022-08-21T02:21:32;1.25;;;0.60;;
26163;SDS011;13914;48.178;11.716;2022-08-21T02:23:58;2.20;;;0.68;;
26163;SDS011;13914;48.178;11.716;2022-08-21T02:26:24;0.98;;;0.80;;
26163;SDS011;13914;48.178;11.716;2022-08-21T02:28:51;2.63;;;0.60;;
26163;SDS011;13914;48.178;11.716;2022-08-21T02:31:17;3.92;;;0.80;;
26163;SDS011;13914;48.178;11.716;2022-08-21T02:33:43;1.55;;;0.95;;
26163;SDS011;13914;48.178;11.716;2022-08-21T02:36:09;4.03;;;0.75;;
26163;SDS011;13914;48.178;11.716;2022-08-21T02:38:37;1.88;;;0.60;;
26163;SDS011;13914;48.178;11.716;2022-08-21T02:41:06;3.30;;;0.70;;
26163;SDS011;13914;48.178;11.716;2022-08-21T02:43:36;2.45;;;0.50;;
26163;SDS011;13914;48.178;11.716;2022-08-21T02:46:02;2.30;;;0.70;;
26163;SDS011;13914;48.178;11.716;2022-08-21T02:48:31;3.30;;;1.08;;
26163;SDS011;13914;48.178;11.716;2022-08-21T02:51:06;1.63;;;0.52;;
26163;SDS011;13914;48.178;11.716;2022-08-21T02:53:38;2.35;;;0.80;;
26163;SDS011;13914;48.178;11.716;2022-08-21T02:56:07;1.23;;;0.70;;
26163;SDS011;13914;48.178;11.716;2022-08-21T02:58:37;2.58;;;0.73;;
26163;SDS011;13914;48.178;11.716;2022-08-21T03:01:08;2.53;;;0.70;;
26163;SDS011;13914;48.178;11.716;2022-08-21T03:06:06;2.90;;;0.82;;
26163;SDS011;13914;48.178;11.716;2022-08-21T03:08:34;2.03;;;0.63;;
26163;SDS011;13914;48.178;11.716;2022-08-21T03:11:01;1.38;;;0.65;;
26163;SDS011;13914;48.178;11.716;2022-08-21T03:13:27;2.38;;;0.70;;
26163;SDS011;13914;48.178;11.716;2022-08-21T03:15:53;1.73;;;0.80;;
26163;SDS011;13914;48.178;11.716;2022-08-21T03:18:20;2.85;;;0.70;;
26163;SDS011;13914;48.178;11.716;2022-08-21T03:20:46;1.27;;;0.80;;
26163;SDS011;13914;48.178;11.716;2022-08-21T03:23:12;4.32;;;1.08;;
26163;SDS011;13914;48.178;11.716;2022-08-21T03:25:40;5.80;;;0.98;;
26163;SDS011;13914;48.178;11.716;2022-08-21T03:30:35;2.00;;;0.52;;
26163;SDS011;13914;48.178;11.716;2022-08-21T03:33:01;6.25;;;0.90;;
26163;SDS011;13914;48.178;11.716;2022-08-21T03:35:27;2.70;;;1.08;;
26163;SDS011;13914;48.178;11.716;2022-08-21T03:37:54;3.60;;;0.75;;
26163;SDS011;13914;48.178;11.716;2022-08-21T03:42:49;4.88;;;0.82;;
26163;SDS011;13914;48.178;11.716;2022-08-21T03:45:16;2.10;;;0.60;;
26163;SDS011;13914;48.178;11.716;2022-08-21T03:48:02;2.72;;;0.60;;
26163;SDS011;13914;48.178;11.716;2022-08-21T03:50:31;6.57;;;0.65;;
26163;SDS011;13914;48.178;11.716;2022-08-21T03:53:02;1.85;;;0.52;;
26163;SDS011;13914;48.178;11.716;2022-08-21T03:55:28;1.30;;;0.80;;
26163;SDS011;13914;48.178;11.716;2022-08-21T03:57:54;2.65;;;0.95;;
26163;SDS011;13914;48.178;11.716;2022-08-21T04:02:47;1.77;;;0.60;;
26163;SDS011;13914;48.178;11.716;2022-08-21T04:05:14;3.53;;;0.73;;
26163;SDS011;13914;48.178;11.716;2022-08-21T04:08:02;5.78;;;0.57;;
26163;SDS011;13914;48.178;11.716;2022-08-21T04:10:31;3.25;;;0.70;;
26163;SDS011;13914;48.178;11.716;2022-08-21T04:12:59;1.23;;;0.85;;
26163;SDS011;13914;48.178;11.716;2022-08-21T04:15:25;1.48;;;0.70;;
26163;SDS011;13914;48.178;11.716;2022-08-21T04:17:51;1.25;;;0.90;;
26163;SDS011;13914;48.178;11.716;2022-08-21T04:20:18;1.40;;;0.90;;
26163;SDS011;13914;48.178;11.716;2022-08-21T04:22:45;5.25;;;0.90;;
26163;SDS011;13914;48.178;11.716;2022-08-21T04:25:11;1.80;;;0.77;;
26163;SDS011;13914;48.178;11.716;2022-08-21T04:27:40;2.13;;;0.90;;
26163;SDS011;13914;48.178;11.716;2022-08-21T04:30:07;2.15;;;0.80;;
26163;SDS011;13914;48.178;11.716;2022-08-21T04:32:35;1.30;;;0.80;;
26163;SDS011;13914;48.178;11.716;2022-08-21T04:35:04;4.47;;;0.73;;
26163;SDS011;13914;48.178;11.716;2022-08-21T04:37:36;2.25;;;0.70;;
26163;SDS011;13914;48.178;11.716;2022-08-21T04:40:03;1.38;;;0.90;;
26163;SDS011;13914;48.178;11.716;2022-08-21T04:42:31;1.98;;;0.80;;
26163;SDS011;13914;48.178;11.716;2022-08-21T04:44:57;2.55;;;1.02;;
26163;SDS011;13914;48.178;11.716;2022-08-21T04:47:23;1.85;;;0.93;;
26163;SDS011;13914;48.178;11.716;2022-08-21T04:49:49;3.72;;;1.00;;
26163;SDS011;13914;48.178;11.716;2022-08-21T04:54:44;4.55;;;1.25;;
26163;SDS011;13914;48.178;11.716;2022-08-21T04:57:12;5.65;;;0.65;;
26163;SDS011;13914;48.178;11.716;2022-08-21T04:59:41;4.57;;;1.20;;
26163;SDS011;13914;48.178;11.716;2022-08-21T05:02:12;3.17;;;1.23;;
26163;SDS011;13914;48.178;11.716;2022-08-21T05:04:40;3.13;;;1.13;;
26163;SDS011;13914;48.178;11.716;2022-08-21T05:07:12;5.32;;;0.80;;
26163;SDS011;13914;48.178;11.716;2022-08-21T05:09:42;2.67;;;1.20;;
26163;SDS011;13914;48.178;11.716;2022-08-21T05:12:08;3.47;;;1.00;;
26163;SDS011;13914;48.178;11.716;2022-08-21T05:14:35;1.60;;;0.82;;
26163;SDS011;13914;48.178;11.716;2022-08-21T05:17:01;2.63;;;1.23;;
26163;SDS011;13914;48.178;11.716;2022-08-21T05:19:28;3.47;;;1.08;;
26163;SDS011;13914;48.178;11.716;2022-08-21T05:21:54;1.48;;;0.88;;
26163;SDS011;13914;48.178;11.716;2022-08-21T05:24:20;1.25;;;0.80;;
26163;SDS011;13914;48.178;11.716;2022-08-21T05:26:45;2.00;;;1.10;;
26163;SDS011;13914;48.178;11.716;2022-08-21T05:29:12;2.38;;;0.95;;
26163;SDS011;13914;48.178;11.716;2022-08-21T05:31:42;3.95;;;0.90;;
26163;SDS011;13914;48.178;11.716;2022-08-21T05:34:09;6.28;;;0.90;;
26163;SDS011;13914;48.178;11.716;2022-08-21T05:36:34;1.55;;;0.70;;
26163;SDS011;13914;48.178;11.716;2022-08-21T05:39:00;3.33;;;0.85;;
26163;SDS011;13914;48.178;11.716;2022-08-21T05:43:52;8.45;;;1.27;;
26163;SDS011;13914;48.178;11.716;2022-08-21T05:46:18;3.58;;;0.50;;
26163;SDS011;13914;48.178;11.716;2022-08-21T05:48:44;3.67;;;0.70;;
26163;SDS011;13914;48.178;11.716;2022-08-21T05:51:11;3.25;;;1.30;;
26163;SDS011;13914;48.178;11.716;2022-08-21T05:53:39;1.52;;;0.95;;
26163;SDS011;13914;48.178;11.716;2022-08-21T05:56:07;4.72;;;0.80;;
26163;SDS011;13914;48.178;11.716;2022-08-21T05:58:33;1.50;;;0.77;;
26163;SDS011;13914;48.178;11.716;2022-08-21T06:00:59;1.30;;;1.00;;
26163;SDS011;13914;48.178;11.716;2022-08-21T06:03:28;2.35;;;1.13;;
26163;SDS011;13914;48.178;11.716;2022-08-21T06:05:57;1.98;;;0.93;;
26163;SDS011;13914;48.178;11.716;2022-08-21T06:08:23;3.53;;;1.23;;
26163;SDS011;13914;48.178;11.716;2022-08-21T06:10:50;1.27;;;0.95;;
26163;SDS011;13914;48.178;11.716;2022-08-21T06:13:18;4.95;;;1.00;;
26163;SDS011;13914;48.178;11.716;2022-08-21T06:15:45;2.63;;;1.25;;
26163;SDS011;13914;48.178;11.716;2022-08-21T06:18:11;2.42;;;1.60;;
26163;SDS011;13914;48.178;11.716;2022-08-21T06:20:38;2.70;;;1.23;;
26163;SDS011;13914;48.178;11.716;2022-08-21T06:23:04;7.88;;;3.05;;
26163;SDS011;13914;48.178;11.716;2022-08-21T06:25:30;2.97;;;1.30;;
26163;SDS011;13914;48.178;11.716;2022-08-21T06:28:02;4.47;;;1.92;;
26163;SDS011;13914;48.178;11.716;2022-08-21T06:30:32;3.45;;;1.80;;
26163;SDS011;13914;48.178;11.716;2022-08-21T06:32:59;3.53;;;1.67;;
26163;SDS011;13914;48.178;11.716;2022-08-21T06:35:26;6.82;;;1.77;;
26163;SDS011;13914;48.178;11.716;2022-08-21T06:37:54;1.75;;;0.98;;
26163;SDS011;13914;48.178;11.716;2022-08-21T06:40:21;3.17;;;1.40;;
26163;SDS011;13914;48.178;11.716;2022-08-21T06:42:47;2.78;;;1.83;;
26163;SDS011;13914;48.178;11.716;2022-08-21T06:45:13;3.17;;;1.33;;
26163;SDS011;13914;48.178;11.716;2022-08-21T06:47:39;4.40;;;1.42;;
26163;SDS011;13914;48.178;11.716;2022-08-21T06:50:05;3.25;;;1.35;;
26163;SDS011;13914;48.178;11.716;2022-08-21T06:52:35;2.92;;;1.58;;
26163;SDS011;13914;48.178;11.716;2022-08-21T06:55:03;3.88;;;2.10;;
26163;SDS011;13914;48.178;11.716;2022-08-21T06:57:32;3.92;;;1.90;;
26163;SDS011;13914;48.178;11.716;2022-08-21T06:59:58;5.00;;;1.80;;
26163;SDS011;13914;48.178;11.716;2022-08-21T07:02:24;5.85;;;1.83;;
26163;SDS011;13914;48.178;11.716;2022-08-21T07:04:50;4.53;;;1.83;;
26163;SDS011;13914;48.178;11.716;2022-08-21T07:07:16;3.97;;;1.77;;
26163;SDS011;13914;48.178;11.716;2022-08-21T07:09:42;4.40;;;2.30;;
26163;SDS011;13914;48.178;11.716;2022-08-21T07:12:08;2.58;;;1.60;;
26163;SDS011;13914;48.178;11.716;2022-08-21T07:14:35;3.38;;;1.80;;
26163;SDS011;13914;48.178;11.716;2022-08-21T07:17:02;4.38;;;2.20;;
26163;SDS011;13914;48.178;11.716;2022-08-21T07:19:27;7.30;;;2.42;;
26163;SDS011;13914;48.178;11.716;2022-08-21T07:21:58;3.30;;;2.00;;
26163;SDS011;13914;48.178;11.716;2022-08-21T07:24:27;7.68;;;2.10;;
26163;SDS011;13914;48.178;11.716;2022-08-21T07:26:54;4.57;;;2.05;;
26163;SDS011;13914;48.178;11.716;2022-08-21T07:29:20;8.52;;;2.13;;
26163;SDS011;13914;48.178;11.716;2022-08-21T07:31:46;3.13;;;1.70;;
26163;SDS011;13914;48.178;11.716;2022-08-21T07:34:12;1.95;;;1.40;;
26163;SDS011;13914;48.178;11.716;2022-08-21T07:36:38;3.03;;;1.73;;
26163;SDS011;13914;48.178;11.716;2022-08-21T07:39:03;2.78;;;1.70;;
26163;SDS011;13914;48.178;11.716;2022-08-21T07:41:29;2.63;;;1.55;;
26163;SDS011;13914;48.178;11.716;2022-08-21T07:43:57;2.85;;;1.52;;
26163;SDS011;13914;48.178;11.716;2022-08-21T07:46:24;3.03;;;1.60;;
26163;SDS011;13914;48.178;11.716;2022-08-21T07:48:50;3.70;;;2.50;;
26163;SDS011;13914;48.178;11.716;2022-08-21T07:51:17;2.85;;;2.05;;
26163;SDS011;13914;48.178;11.716;2022-08-21T07:53:48;5.45;;;2.35;;
26163;SDS011;13914;48.178;11.716;2022-08-21T07:56:18;6.45;;;2.60;;
26163;SDS011;13914;48.178;11.716;2022-08-21T07:58:44;4.22;;;2.60;;
26163;SDS011;13914;48.178;11.716;2022-08-21T08:06:03;4.30;;;1.83;;
26163;SDS011;13914;48.178;11.716;2022-08-21T08:08:31;4.32;;;2.35;;
26163;SDS011;13914;48.178;11.716;2022-08-21T08:10:57;3.60;;;1.95;;
26163;SDS011;13914;48.178;11.716;2022-08-21T08:13:24;6.68;;;2.80;;
26163;SDS011;13914;48.178;11.716;2022-08-21T08:23:11;4.68;;;2.72;;
26163;SDS011;13914;48.178;11.716;2022-08-21T08:25:38;2.10;;;1.50;;
26163;SDS011;13914;48.178;11.716;2022-08-21T08:28:05;4.15;;;1.98;;
26163;SDS011;13914;48.178;11.716;2022-08-21T08:30:31;4.80;;;2.30;;
26163;SDS011;13914;48.178;11.716;2022-08-21T08:35:24;5.20;;;2.47;;
26163;SDS011;13914;48.178;11.716;2022-08-21T08:40:22;4.65;;;1.95;;
26163;SDS011;13914;48.178;11.716;2022-08-21T08:43:00;4.15;;;2.20;;
26163;SDS011;13914;48.178;11.716;2022-08-21T08:45:26;3.65;;;2.00;;
26163;SDS011;13914;48.178;11.716;2022-08-21T08:47:59;5.55;;;2.75;;
26163;SDS011;13914;48.178;11.716;2022-08-21T08:53:09;5.18;;;2.60;;
26163;SDS011;13914;48.178;11.716;2022-08-21T08:55:47;7.20;;;2.33;;
26163;SDS011;13914;48.178;11.716;2022-08-21T08:58:24;12.18;;;2.38;;
26163;SDS011;13914;48.178;11.716;2022-08-21T09:03:39;5.90;;;2.50;;
26163;SDS011;13914;48.178;11.716;2022-08-21T09:12:04;3.65;;;2.33;;
26163;SDS011;13914;48.178;11.716;2022-08-21T09:21:07;8.35;;;3.40;;
26163;SDS011;13914;48.178;11.716;2022-08-21T09:24:14;4.53;;;2.35;;
26163;SDS011;13914;48.178;11.716;2022-08-21T09:29:37;6.22;;;2.63;;
26163;SDS011;13914;48.178;11.716;2022-08-21T09:32:11;5.38;;;2.45;;
26163;SDS011;13914;48.178;11.716;2022-08-21T09:34:54;5.13;;;2.65;;
26163;SDS011;13914;48.178;11.716;2022-08-21T09:37:29;7.45;;;2.50;;
26163;SDS011;13914;48.178;11.716;2022-08-21T09:39:59;11.13;;;2.63;;
26163;SDS011;13914;48.178;11.716;2022-08-21T09:42:29;3.63;;;2.13;;
26163;SDS011;13914;48.178;11.716;2022-08-21T09:45:15;5.50;;;2.10;;
26163;SDS011;13914;48.178;11.716;2022-08-21T09:50:21;5.13;;;1.80;;
26163;SDS011;13914;48.178;11.716;2022-08-21T09:52:53;7.15;;;2.47;;
26163;SDS011;13914;48.178;11.716;2022-08-21T09:58:29;3.42;;;2.20;;
26163;SDS011;13914;48.178;11.716;2022-08-21T10:01:00;4.25;;;2.30;;
26163;SDS011;13914;48.178;11.716;2022-08-21T10:03:29;3.45;;;1.92;;
26163;SDS011;13914;48.178;11.716;2022-08-21T10:05:57;3.80;;;1.98;;
26163;SDS011;13914;48.178;11.716;2022-08-21T10:08:31;3.25;;;1.83;;
26163;SDS011;13914;48.178;11.716;2022-08-21T10:11:04;3.35;;;2.10;;
26163;SDS011;13914;48.178;11.716;2022-08-21T10:16:53;5.03;;;2.10;;
26163;SDS011;13914;48.178;11.716;2022-08-21T10:25:18;2.88;;;1.70;;
26163;SDS011;13914;48.178;11.716;2022-08-21T10:30:50;2.80;;;1.95;;
26163;SDS011;13914;48.178;11.716;2022-08-21T10:33:44;2.67;;;1.73;;
26163;SDS011;13914;48.178;11.716;2022-08-21T10:36:39;4.93;;;1.95;;
26163;SDS011;13914;48.178;11.716;2022-08-21T10:44:37;4.10;;;1.70;;
26163;SDS011;13914;48.178;11.716;2022-08-21T10:53:33;4.55;;;2.10;;
26163;SDS011;13914;48.178;11.716;2022-08-21T10:56:26;3.72;;;1.98;;
26163;SDS011;13914;48.178;11.716;2022-08-21T10:59:00;4.15;;;1.73;;
26163;SDS011;13914;48.178;11.716;2022-08-21T11:01:46;7.13;;;1.65;;
26163;SDS011;13914;48.178;11.716;2022-08-21T11:04:20;3.95;;;1.92;;
26163;SDS011;13914;48.178;11.716;2022-08-21T11:07:02;2.85;;;1.95;;
26163;SDS011;13914;48.178;11.716;2022-08-21T11:09:42;5.93;;;2.38;;
26163;SDS011;13914;48.178;11.716;2022-08-21T11:12:25;7.40;;;2.15;;
26163;SDS011;13914;48.178;11.716;2022-08-21T11:18:10;2.88;;;2.10;;
26163;SDS011;13914;48.178;11.716;2022-08-21T11:26:43;3.72;;;1.70;;
26163;SDS011;13914;48.178;11.716;2022-08-21T11:38:08;3.22;;;2.08;;
26163;SDS011;13914;48.178;11.716;2022-08-21T11:41:03;2.70;;;2.10;;
26163;SDS011;13914;48.178;11.716;2022-08-21T11:52:45;3.25;;;1.98;;
26163;SDS011;13914;48.178;11.716;2022-08-21T11:55:26;7.38;;;2.28;;
26163;SDS011;13914;48.178;11.716;2022-08-21T11:58:20;2.85;;;1.85;;
26163;SDS011;13914;48.178;11.716;2022-08-21T12:00:52;3.58;;;2.30;;
26163;SDS011;13914;48.178;11.716;2022-08-21T12:03:27;4.70;;;2.80;;
26163;SDS011;13914;48.178;11.716;2022-08-21T12:06:02;3.63;;;2.40;;
26163;SDS011;13914;48.178;11.716;2022-08-21T12:08:34;3.97;;;1.90;;
26163;SDS011;13914;48.178;11.716;2022-08-21T12:16:28;3.10;;;2.35;;
26163;SDS011;13914;48.178;11.716;2022-08-21T12:19:04;2.92;;;2.15;;
26163;SDS011;13914;48.178;11.716;2022-08-21T12:21:33;3.80;;;2.08;;
26163;SDS011;13914;48.178;11.716;2022-08-21T12:26:48;3.00;;;1.90;;
26163;SDS011;13914;48.178;11.716;2022-08-21T12:35:17;5.05;;;1.92;;
26163;SDS011;13914;48.178;11.716;2022-08-21T12:37:50;4.05;;;2.00;;
26163;SDS011;13914;48.178;11.716;2022-08-21T12:40:31;3.47;;;1.80;;
26163;SDS011;13914;48.178;11.716;2022-08-21T12:43:05;4.80;;;2.07;;
26163;SDS011;13914;48.178;11.716;2022-08-21T12:45:40;3.63;;;2.03;;
26163;SDS011;13914;48.178;11.716;2022-08-21T12:50:42;2.95;;;2.15;;
26163;SDS011;13914;48.178;11.716;2022-08-21T12:56:11;4.88;;;2.22;;
26163;SDS011;13914;48.178;11.716;2022-08-21T12:58:44;2.67;;;1.60;;
26163;SDS011;13914;48.178;11.716;2022-08-21T13:01:20;2.35;;;1.85;;
26163;SDS011;13914;48.178;11.716;2022-08-21T13:03:49;2.70;;;1.83;;
26163;SDS011;13914;48.178;11.716;2022-08-21T13:06:17;2.92;;;2.03;;
26163;SDS011;13914;48.178;11.716;2022-08-21T13:08:45;4.40;;;2.38;;
26163;SDS011;13914;48.178;11.716;2022-08-21T13:11:18;3.75;;;2.17;;
26163;SDS011;13914;48.178;11.716;2022-08-21T13:13:53;6.30;;;1.83;;
26163;SDS011;13914;48.178;11.716;2022-08-21T13:16:22;2.72;;;1.85;;
26163;SDS011;13914;48.178;11.716;2022-08-21T13:18:55;3.78;;;1.75;;
26163;SDS011;13914;48.178;11.716;2022-08-21T13:21:29;3.58;;;1.90;;
26163;SDS011;13914;48.178;11.716;2022-08-21T13:24:09;4.03;;;1.70;;
26163;SDS011;13914;48.178;11.716;2022-08-21T13:26:48;4.88;;;2.20;;
26163;SDS011;13914;48.178;11.716;2022-08-21T13:29:19;4.13;;;1.98;;
26163;SDS011;13914;48.178;11.716;2022-08-21T13:31:51;3.88;;;1.92;;
26163;SDS011;13914;48.178;11.716;2022-08-21T13:34:23;7.30;;;1.80;;
26163;SDS011;13914;48.178;11.716;2022-08-21T13:36:52;4.47;;;2.33;;
26163;SDS011;13914;48.178;11.716;2022-08-21T13:39:23;5.28;;;2.08;;
26163;SDS011;13914;48.178;11.716;2022-08-21T13:41:50;3.13;;;1.70;;
26163;SDS011;13914;48.178;11.716;2022-08-21T13:44:22;3.08;;;1.85;;
26163;SDS011;13914;48.178;11.716;2022-08-21T13:47:02;3.00;;;1.85;;
26163;SDS011;13914;48.178;11.716;2022-08-21T13:49:34;4.47;;;1.83;;
26163;SDS011;13914;48.178;11.716;2022-08-21T13:52:03;4.47;;;1.85;;
26163;SDS011;13914;48.178;11.716;2022-08-21T13:54:38;3.38;;;1.92;;
26163;SDS011;13914;48.178;11.716;2022-08-21T13:57:19;3.30;;;1.67;;
26163;SDS011;13914;48.178;11.716;2022-08-21T14:02:40;5.35;;;1.90;;
26163;SDS011;13914;48.178;11.716;2022-08-21T14:05:31;3.25;;;1.90;;
26163;SDS011;13914;48.178;11.716;2022-08-21T14:08:03;2.78;;;1.80;;
26163;SDS011;13914;48.178;11.716;2022-08-21T14:10:47;2.85;;;1.42;;
26163;SDS011;13914;48.178;11.716;2022-08-21T14:16:09;4.03;;;1.95;;
26163;SDS011;13914;48.178;11.716;2022-08-21T14:19:45;2.72;;;1.65;;
26163;SDS011;13914;48.178;11.716;2022-08-21T14:25:00;4.18;;;1.73;;
26163;SDS011;13914;48.178;11.716;2022-08-21T14:27:40;3.20;;;1.65;;
26163;SDS011;13914;48.178;11.716;2022-08-21T14:30:35;3.45;;;1.83;;
26163;SDS011;13914;48.178;11.716;2022-08-21T14:33:07;4.05;;;1.70;;
26163;SDS011;13914;48.178;11.716;2022-08-21T14:35:36;2.75;;;1.90;;
26163;SDS011;13914;48.178;11.716;2022-08-21T14:40:45;2.50;;;1.67;;
26163;SDS011;13914;48.178;11.716;2022-08-21T14:43:15;3.72;;;1.77;;
26163;SDS011;13914;48.178;11.716;2022-08-21T14:45:41;3.50;;;1.90;;
26163;SDS011;13914;48.178;11.716;2022-08-21T14:48:08;4.82;;;1.95;;
26163;SDS011;13914;48.178;11.716;2022-08-21T14:50:35;5.47;;;1.70;;
26163;SDS011;13914;48.178;11.716;2022-08-21T14:53:01;2.67;;;1.70;;
26163;SDS011;13914;48.178;11.716;2022-08-21T14:55:28;2.35;;;1.70;;
26163;SDS011;13914;48.178;11.716;2022-08-21T14:57:55;3.47;;;1.42;;
26163;SDS011;13914;48.178;11.716;2022-08-21T15:02:49;2.50;;;1.90;;
26163;SDS011;13914;48.178;11.716;2022-08-21T15:05:16;4.40;;;1.90;;
26163;SDS011;13914;48.178;11.716;2022-08-21T15:07:43;4.13;;;2.10;;
26163;SDS011;13914;48.178;11.716;2022-08-21T15:10:09;3.03;;;1.70;;
26163;SDS011;13914;48.178;11.716;2022-08-21T15:12:36;4.15;;;1.70;;
26163;SDS011;13914;48.178;11.716;2022-08-21T15:15:06;3.33;;;1.98;;
26163;SDS011;13914;48.178;11.716;2022-08-21T15:17:33;4.78;;;1.50;;
26163;SDS011;13914;48.178;11.716;2022-08-21T15:19:58;3.10;;;1.80;;
26163;SDS011;13914;48.178;11.716;2022-08-21T15:22:24;3.08;;;1.73;;
26163;SDS011;13914;48.178;11.716;2022-08-21T15:24:50;4.70;;;1.92;;
26163;SDS011;13914;48.178;11.716;2022-08-21T15:27:16;3.47;;;1.70;;
26163;SDS011;13914;48.178;11.716;2022-08-21T15:29:43;3.92;;;1.67;;
26163;SDS011;13914;48.178;11.716;2022-08-21T15:32:17;2.90;;;1.40;;
26163;SDS011;13914;48.178;11.716;2022-08-21T15:34:46;4.65;;;1.80;;
26163;SDS011;13914;48.178;11.716;2022-08-21T15:37:11;8.50;;;2.08;;
26163;SDS011;13914;48.178;11.716;2022-08-21T15:39:37;6.22;;;1.75;;
26163;SDS011;13914;48.178;11.716;2022-08-21T15:42:03;3.83;;;1.70;;
26163;SDS011;13914;48.178;11.716;2022-08-21T15:44:30;2.42;;;1.55;;
26163;SDS011;13914;48.178;11.716;2022-08-21T15:46:56;4.55;;;2.05;;
26163;SDS011;13914;48.178;11.716;2022-08-21T15:49:23;3.38;;;1.60;;
26163;SDS011;13914;48.178;11.716;2022-08-21T15:51:49;3.03;;;1.70;;
26163;SDS011;13914;48.178;11.716;2022-08-21T15:54:15;4.28;;;1.90;;
26163;SDS011;13914;48.178;11.716;2022-08-21T15:56:43;4.07;;;1.85;;
26163;SDS011;13914;48.178;11.716;2022-08-21T15:59:13;4.72;;;2.10;;
26163;SDS011;13914;48.178;11.716;2022-08-21T16:01:43;3.85;;;2.50;;
26163;SDS011;13914;48.178;11.716;2022-08-21T16:04:13;4.18;;;2.00;;
26163;SDS011;13914;48.178;11.716;2022-08-21T16:06:47;3.92;;;1.90;;
26163;SDS011;13914;48.178;11.716;2022-08-21T16:09:14;3.50;;;1.90;;
26163;SDS011;13914;48.178;11.716;2022-08-21T16:11:40;3.03;;;1.70;;
26163;SDS011;13914;48.178;11.716;2022-08-21T16:14:08;5.40;;;2.35;;
26163;SDS011;13914;48.178;11.716;2022-08-21T16:16:40;3.83;;;2.05;;
26163;SDS011;13914;48.178;11.716;2022-08-21T16:19:07;5.60;;;2.38;;
26163;SDS011;13914;48.178;11.716;2022-08-21T16:21:34;3.00;;;1.98;;
26163;SDS011;13914;48.178;11.716;2022-08-21T16:26:26;4.57;;;2.08;;
26163;SDS011;13914;48.178;11.716;2022-08-21T16:28:54;5.28;;;2.30;;
26163;SDS011;13914;48.178;11.716;2022-08-21T16:31:22;7.20;;;2.33;;
26163;SDS011;13914;48.178;11.716;2022-08-21T16:33:50;6.97;;;2.13;;
26163;SDS011;13914;48.178;11.716;2022-08-21T16:36:19;3.80;;;2.05;;
26163;SDS011;13914;48.178;11.716;2022-08-21T16:38:46;5.80;;;2.60;;
26163;SDS011;13914;48.178;11.716;2022-08-21T16:43:41;4.68;;;2.17;;
26163;SDS011;13914;48.178;11.716;2022-08-21T16:46:08;3.33;;;1.90;;
26163;SDS011;13914;48.178;11.716;2022-08-21T16:48:37;4.63;;;2.22;;
26163;SDS011;13914;48.178;11.716;2022-08-21T16:51:03;7.75;;;2.40;;
26163;SDS011;13914;48.178;11.716;2022-08-21T16:53:29;3.42;;;2.17;;
26163;SDS011;13914;48.178;11.716;2022-08-21T16:58:24;6.68;;;2.10;;
26163;SDS011;13914;48.178;11.716;2022-08-21T17:00:55;3.78;;;2.67;;
26163;SDS011;13914;48.178;11.716;2022-08-21T17:03:25;5.25;;;2.20;;
26163;SDS011;13914;48.178;11.716;2022-08-21T17:05:58;3.80;;;2.30;;
26163;SDS011;13914;48.178;11.716;2022-08-21T17:08:25;6.47;;;2.15;;
26163;SDS011;13914;48.178;11.716;2022-08-21T17:13:19;3.67;;;2.08;;
26163;SDS011;13914;48.178;11.716;2022-08-21T17:15:45;3.25;;;2.00;;
26163;SDS011;13914;48.178;11.716;2022-08-21T17:18:15;6.30;;;2.38;;
26163;SDS011;13914;48.178;11.716;2022-08-21T17:20:43;3.40;;;1.98;;
26163;SDS011;13914;48.178;11.716;2022-08-21T17:23:12;6.65;;;2.70;;
26163;SDS011;13914;48.178;11.716;2022-08-21T17:25:40;3.60;;;2.38;;
26163;SDS011;13914;48.178;11.716;2022-08-21T17:28:11;5.60;;;2.35;;
26163;SDS011;13914;48.178;11.716;2022-08-21T17:30:41;6.80;;;2.75;;
26163;SDS011;13914;48.178;11.716;2022-08-21T17:33:10;6.72;;;2.45;;